sensor_id;sensor_type;location;lat;lon;timestamp;P1;durP1;ratioP1;P2;durP2;ratioP2
81223;SDS011;70698;44.402;18.522;2024-02-15T00:00:21;147.13;;;46.63;;
81223;SDS011;70698;44.402;18.522;2024-02-15T00:02:47;178.18;;;58.47;;
81223;SDS011;70698;44.402;18.522;2024-02-15T00:05:14;241.25;;;88.00;;
81223;SDS011;70698;44.402;18.522;2024-02-15T00:10:09;135.88;;;45.88;;
81223;SDS011;70698;44.402;18.522;2024-02-15T00:12:35;115.15;;;42.72;;
81223;SDS011;70698;44.402;18.522;2024-02-15T00:15:01;156.27;;;50.75;;
81223;SDS011;70698;44.402;18.522;2024-02-15T00:17:29;144.90;;;47.13;;
81223;SDS011;70698;44.402;18.522;2024-02-15T00:19:55;169.27;;;52.42;;
81223;SDS011;70698;44.402;18.522;2024-02-15T00:22:21;160.05;;;51.28;;
81223;SDS011;70698;44.402;18.522;2024-02-15T00:24:47;156.38;;;51.42;;
81223;SDS011;70698;44.402;18.522;2024-02-15T00:27:16;158.82;;;52.92;;
81223;SDS011;70698;44.402;18.522;2024-02-15T00:29:42;134.18;;;47.58;;
81223;SDS011;70698;44.402;18.522;2024-02-15T00:32:11;67.68;;;24.15;;
81223;SDS011;70698;44.402;18.522;2024-02-15T00:34:37;67.32;;;24.13;;
81223;SDS011;70698;44.402;18.522;2024-02-15T00:37:06;48.85;;;20.10;;
81223;SDS011;70698;44.402;18.522;2024-02-15T00:39:31;48.15;;;18.92;;
81223;SDS011;70698;44.402;18.522;2024-02-15T00:41:57;37.80;;;16.00;;
81223;SDS011;70698;44.402;18.522;2024-02-15T00:44:25;29.88;;;12.77;;
81223;SDS011;70698;44.402;18.522;2024-02-15T00:46:52;36.55;;;15.77;;
81223;SDS011;70698;44.402;18.522;2024-02-15T00:49:17;28.00;;;12.45;;
81223;SDS011;70698;44.402;18.522;2024-02-15T00:51:45;66.07;;;24.80;;
81223;SDS011;70698;44.402;18.522;2024-02-15T00:54:12;80.20;;;30.90;;
81223;SDS011;70698;44.402;18.522;2024-02-15T00:56:37;90.28;;;33.60;;
81223;SDS011;70698;44.402;18.522;2024-02-15T00:59:03;107.22;;;38.40;;
81223;SDS011;70698;44.402;18.522;2024-02-15T01:01:30;108.25;;;39.05;;
81223;SDS011;70698;44.402;18.522;2024-02-15T01:03:56;111.05;;;39.85;;
81223;SDS011;70698;44.402;18.522;2024-02-15T01:06:22;134.30;;;49.95;;
81223;SDS011;70698;44.402;18.522;2024-02-15T01:08:47;148.18;;;60.42;;
81223;SDS011;70698;44.402;18.522;2024-02-15T01:11:13;147.10;;;60.15;;
81223;SDS011;70698;44.402;18.522;2024-02-15T01:13:39;110.80;;;42.97;;
81223;SDS011;70698;44.402;18.522;2024-02-15T01:16:05;88.25;;;36.15;;
81223;SDS011;70698;44.402;18.522;2024-02-15T01:18:32;100.40;;;38.25;;
81223;SDS011;70698;44.402;18.522;2024-02-15T01:20:58;100.22;;;38.35;;
81223;SDS011;70698;44.402;18.522;2024-02-15T01:23:24;89.18;;;34.88;;
81223;SDS011;70698;44.402;18.522;2024-02-15T01:25:51;84.82;;;33.58;;
81223;SDS011;70698;44.402;18.522;2024-02-15T01:28:17;89.93;;;33.30;;
81223;SDS011;70698;44.402;18.522;2024-02-15T01:30:43;90.45;;;35.25;;
81223;SDS011;70698;44.402;18.522;2024-02-15T01:33:09;99.57;;;37.55;;
81223;SDS011;70698;44.402;18.522;2024-02-15T01:35:36;97.00;;;38.10;;
81223;SDS011;70698;44.402;18.522;2024-02-15T01:38:03;97.30;;;35.80;;
81223;SDS011;70698;44.402;18.522;2024-02-15T01:40:29;95.80;;;35.22;;
81223;SDS011;70698;44.402;18.522;2024-02-15T01:42:54;100.68;;;37.08;;
81223;SDS011;70698;44.402;18.522;2024-02-15T01:45:20;76.45;;;31.10;;
81223;SDS011;70698;44.402;18.522;2024-02-15T01:47:47;92.32;;;35.17;;
81223;SDS011;70698;44.402;18.522;2024-02-15T01:50:14;101.53;;;37.85;;
81223;SDS011;70698;44.402;18.522;2024-02-15T01:52:42;132.25;;;50.30;;
81223;SDS011;70698;44.402;18.522;2024-02-15T01:55:12;133.10;;;50.97;;
81223;SDS011;70698;44.402;18.522;2024-02-15T01:57:43;166.63;;;61.80;;
81223;SDS011;70698;44.402;18.522;2024-02-15T02:00:10;168.02;;;60.75;;
81223;SDS011;70698;44.402;18.522;2024-02-15T02:02:39;232.45;;;87.47;;
81223;SDS011;70698;44.402;18.522;2024-02-15T02:05:07;222.38;;;87.80;;
81223;SDS011;70698;44.402;18.522;2024-02-15T02:07:33;215.25;;;86.38;;
81223;SDS011;70698;44.402;18.522;2024-02-15T02:09:59;213.73;;;85.53;;
81223;SDS011;70698;44.402;18.522;2024-02-15T02:12:25;164.77;;;62.60;;
81223;SDS011;70698;44.402;18.522;2024-02-15T02:14:53;98.72;;;39.28;;
81223;SDS011;70698;44.402;18.522;2024-02-15T02:17:19;37.10;;;17.50;;
81223;SDS011;70698;44.402;18.522;2024-02-15T02:19:46;36.22;;;16.25;;
81223;SDS011;70698;44.402;18.522;2024-02-15T02:22:14;67.22;;;27.42;;
81223;SDS011;70698;44.402;18.522;2024-02-15T02:25:26;72.13;;;29.08;;
81223;SDS011;70698;44.402;18.522;2024-02-15T02:27:34;50.67;;;22.75;;
81223;SDS011;70698;44.402;18.522;2024-02-15T02:30:12;75.88;;;29.73;;
81223;SDS011;70698;44.402;18.522;2024-02-15T02:32:47;64.18;;;26.92;;
81223;SDS011;70698;44.402;18.522;2024-02-15T02:35:13;56.58;;;22.75;;
81223;SDS011;70698;44.402;18.522;2024-02-15T02:37:41;41.72;;;17.75;;
81223;SDS011;70698;44.402;18.522;2024-02-15T02:40:07;50.03;;;21.13;;
81223;SDS011;70698;44.402;18.522;2024-02-15T02:42:55;51.63;;;21.15;;
81223;SDS011;70698;44.402;18.522;2024-02-15T02:45:29;55.58;;;23.42;;
81223;SDS011;70698;44.402;18.522;2024-02-15T02:47:55;64.68;;;26.60;;
81223;SDS011;70698;44.402;18.522;2024-02-15T02:50:21;64.25;;;28.67;;
81223;SDS011;70698;44.402;18.522;2024-02-15T02:52:50;61.42;;;28.05;;
81223;SDS011;70698;44.402;18.522;2024-02-15T02:55:16;87.60;;;40.25;;
81223;SDS011;70698;44.402;18.522;2024-02-15T02:57:42;63.10;;;29.58;;
81223;SDS011;70698;44.402;18.522;2024-02-15T03:00:12;71.32;;;30.35;;
81223;SDS011;70698;44.402;18.522;2024-02-15T03:02:41;69.38;;;31.48;;
81223;SDS011;70698;44.402;18.522;2024-02-15T03:05:08;72.75;;;30.15;;
81223;SDS011;70698;44.402;18.522;2024-02-15T03:07:36;84.17;;;36.10;;
81223;SDS011;70698;44.402;18.522;2024-02-15T03:10:02;74.57;;;30.77;;
81223;SDS011;70698;44.402;18.522;2024-02-15T03:12:36;79.03;;;32.20;;
81223;SDS011;70698;44.402;18.522;2024-02-15T03:15:03;73.38;;;31.65;;
81223;SDS011;70698;44.402;18.522;2024-02-15T03:17:29;84.63;;;36.60;;
81223;SDS011;70698;44.402;18.522;2024-02-15T03:19:57;119.50;;;46.17;;
81223;SDS011;70698;44.402;18.522;2024-02-15T03:22:23;112.68;;;47.95;;
81223;SDS011;70698;44.402;18.522;2024-02-15T03:24:51;119.72;;;50.75;;
81223;SDS011;70698;44.402;18.522;2024-02-15T03:27:17;125.38;;;50.83;;
81223;SDS011;70698;44.402;18.522;2024-02-15T03:29:43;117.47;;;49.72;;
81223;SDS011;70698;44.402;18.522;2024-02-15T03:32:09;113.10;;;48.10;;
81223;SDS011;70698;44.402;18.522;2024-02-15T03:34:36;122.45;;;50.50;;
81223;SDS011;70698;44.402;18.522;2024-02-15T03:39:30;105.78;;;45.28;;
81223;SDS011;70698;44.402;18.522;2024-02-15T03:41:55;98.40;;;41.30;;
81223;SDS011;70698;44.402;18.522;2024-02-15T03:44:22;88.38;;;38.33;;
81223;SDS011;70698;44.402;18.522;2024-02-15T03:46:51;87.35;;;37.72;;
81223;SDS011;70698;44.402;18.522;2024-02-15T03:49:18;52.63;;;23.98;;
81223;SDS011;70698;44.402;18.522;2024-02-15T03:51:44;108.50;;;44.92;;
81223;SDS011;70698;44.402;18.522;2024-02-15T03:54:13;102.15;;;45.63;;
81223;SDS011;70698;44.402;18.522;2024-02-15T03:56:48;50.15;;;21.88;;
81223;SDS011;70698;44.402;18.522;2024-02-15T04:01:52;95.80;;;41.28;;
81223;SDS011;70698;44.402;18.522;2024-02-15T04:04:18;128.93;;;53.33;;
81223;SDS011;70698;44.402;18.522;2024-02-15T04:06:46;49.50;;;21.37;;
81223;SDS011;70698;44.402;18.522;2024-02-15T04:09:13;51.55;;;24.05;;
81223;SDS011;70698;44.402;18.522;2024-02-15T04:11:39;58.00;;;28.13;;
81223;SDS011;70698;44.402;18.522;2024-02-15T04:14:05;82.90;;;36.92;;
81223;SDS011;70698;44.402;18.522;2024-02-15T04:16:31;82.55;;;39.53;;
81223;SDS011;70698;44.402;18.522;2024-02-15T04:18:58;84.38;;;38.00;;
81223;SDS011;70698;44.402;18.522;2024-02-15T04:21:24;82.88;;;38.38;;
81223;SDS011;70698;44.402;18.522;2024-02-15T04:23:52;59.80;;;28.08;;
81223;SDS011;70698;44.402;18.522;2024-02-15T04:26:19;57.22;;;26.00;;
81223;SDS011;70698;44.402;18.522;2024-02-15T04:28:45;60.33;;;29.27;;
81223;SDS011;70698;44.402;18.522;2024-02-15T04:31:17;70.93;;;32.50;;
81223;SDS011;70698;44.402;18.522;2024-02-15T04:33:43;73.40;;;35.05;;
81223;SDS011;70698;44.402;18.522;2024-02-15T04:36:09;79.78;;;37.20;;
81223;SDS011;70698;44.402;18.522;2024-02-15T04:38:34;93.57;;;39.95;;
81223;SDS011;70698;44.402;18.522;2024-02-15T04:41:00;68.30;;;30.23;;
81223;SDS011;70698;44.402;18.522;2024-02-15T04:45:54;70.35;;;31.77;;
81223;SDS011;70698;44.402;18.522;2024-02-15T04:48:20;88.97;;;36.03;;
81223;SDS011;70698;44.402;18.522;2024-02-15T04:50:48;115.60;;;43.67;;
81223;SDS011;70698;44.402;18.522;2024-02-15T04:53:14;86.03;;;34.10;;
81223;SDS011;70698;44.402;18.522;2024-02-15T04:55:40;84.05;;;34.40;;
81223;SDS011;70698;44.402;18.522;2024-02-15T04:58:05;90.07;;;32.75;;
81223;SDS011;70698;44.402;18.522;2024-02-15T05:00:31;132.73;;;46.80;;
81223;SDS011;70698;44.402;18.522;2024-02-15T05:02:57;168.57;;;60.88;;
81223;SDS011;70698;44.402;18.522;2024-02-15T05:05:23;173.25;;;60.22;;
81223;SDS011;70698;44.402;18.522;2024-02-15T05:07:50;178.88;;;59.00;;
81223;SDS011;70698;44.402;18.522;2024-02-15T05:10:16;215.45;;;70.07;;
81223;SDS011;70698;44.402;18.522;2024-02-15T05:12:42;157.45;;;56.42;;
81223;SDS011;70698;44.402;18.522;2024-02-15T05:15:13;177.18;;;56.10;;
81223;SDS011;70698;44.402;18.522;2024-02-15T05:17:42;155.73;;;51.40;;
81223;SDS011;70698;44.402;18.522;2024-02-15T05:20:11;135.65;;;50.13;;
81223;SDS011;70698;44.402;18.522;2024-02-15T05:22:38;130.57;;;48.85;;
81223;SDS011;70698;44.402;18.522;2024-02-15T05:25:05;168.73;;;55.50;;
81223;SDS011;70698;44.402;18.522;2024-02-15T05:27:33;160.10;;;53.55;;
81223;SDS011;70698;44.402;18.522;2024-02-15T05:29:59;192.60;;;57.72;;
81223;SDS011;70698;44.402;18.522;2024-02-15T05:32:25;265.95;;;75.95;;
81223;SDS011;70698;44.402;18.522;2024-02-15T05:34:51;259.65;;;81.80;;
81223;SDS011;70698;44.402;18.522;2024-02-15T05:37:20;131.60;;;45.65;;
81223;SDS011;70698;44.402;18.522;2024-02-15T05:39:46;125.85;;;46.58;;
81223;SDS011;70698;44.402;18.522;2024-02-15T05:42:11;95.88;;;36.90;;
81223;SDS011;70698;44.402;18.522;2024-02-15T05:44:37;69.00;;;28.45;;
81223;SDS011;70698;44.402;18.522;2024-02-15T05:47:03;58.40;;;25.25;;
81223;SDS011;70698;44.402;18.522;2024-02-15T05:49:29;121.95;;;43.72;;
81223;SDS011;70698;44.402;18.522;2024-02-15T05:51:54;50.60;;;20.98;;
81223;SDS011;70698;44.402;18.522;2024-02-15T05:54:20;101.10;;;35.92;;
81223;SDS011;70698;44.402;18.522;2024-02-15T05:56:48;132.87;;;48.93;;
81223;SDS011;70698;44.402;18.522;2024-02-15T05:59:17;219.05;;;77.97;;
81223;SDS011;70698;44.402;18.522;2024-02-15T06:01:45;117.90;;;45.65;;
81223;SDS011;70698;44.402;18.522;2024-02-15T06:04:14;108.05;;;42.33;;
81223;SDS011;70698;44.402;18.522;2024-02-15T06:06:40;97.72;;;38.70;;
81223;SDS011;70698;44.402;18.522;2024-02-15T06:09:05;90.57;;;36.17;;
81223;SDS011;70698;44.402;18.522;2024-02-15T06:11:31;171.63;;;66.07;;
81223;SDS011;70698;44.402;18.522;2024-02-15T06:13:57;608.90;;;251.90;;
81223;SDS011;70698;44.402;18.522;2024-02-15T06:16:23;606.28;;;257.45;;
81223;SDS011;70698;44.402;18.522;2024-02-15T06:18:48;250.50;;;89.90;;
81223;SDS011;70698;44.402;18.522;2024-02-15T06:21:14;183.00;;;66.22;;
81223;SDS011;70698;44.402;18.522;2024-02-15T06:23:39;190.23;;;73.05;;
81223;SDS011;70698;44.402;18.522;2024-02-15T06:26:05;163.55;;;66.05;;
81223;SDS011;70698;44.402;18.522;2024-02-15T06:28:31;181.18;;;70.63;;
81223;SDS011;70698;44.402;18.522;2024-02-15T06:31:15;227.88;;;85.20;;
81223;SDS011;70698;44.402;18.522;2024-02-15T06:34:00;279.40;;;103.40;;
81223;SDS011;70698;44.402;18.522;2024-02-15T06:36:47;274.25;;;104.13;;
81223;SDS011;70698;44.402;18.522;2024-02-15T06:42:10;171.18;;;66.28;;
81223;SDS011;70698;44.402;18.522;2024-02-15T06:44:37;136.00;;;57.47;;
81223;SDS011;70698;44.402;18.522;2024-02-15T06:47:05;125.25;;;53.97;;
81223;SDS011;70698;44.402;18.522;2024-02-15T06:49:32;110.57;;;47.92;;
81223;SDS011;70698;44.402;18.522;2024-02-15T06:51:58;115.20;;;46.72;;
81223;SDS011;70698;44.402;18.522;2024-02-15T06:54:27;119.00;;;48.47;;
81223;SDS011;70698;44.402;18.522;2024-02-15T06:56:53;160.77;;;65.57;;
81223;SDS011;70698;44.402;18.522;2024-02-15T06:59:20;148.60;;;60.40;;
81223;SDS011;70698;44.402;18.522;2024-02-15T07:01:49;148.05;;;56.10;;
81223;SDS011;70698;44.402;18.522;2024-02-15T07:04:17;119.30;;;50.88;;
81223;SDS011;70698;44.402;18.522;2024-02-15T07:06:44;127.95;;;53.65;;
81223;SDS011;70698;44.402;18.522;2024-02-15T07:11:40;169.90;;;68.93;;
81223;SDS011;70698;44.402;18.522;2024-02-15T07:14:06;171.40;;;67.20;;
81223;SDS011;70698;44.402;18.522;2024-02-15T07:16:33;145.95;;;59.10;;
81223;SDS011;70698;44.402;18.522;2024-02-15T07:18:59;134.82;;;52.20;;
81223;SDS011;70698;44.402;18.522;2024-02-15T07:21:25;165.07;;;62.42;;
81223;SDS011;70698;44.402;18.522;2024-02-15T07:23:54;195.70;;;76.68;;
81223;SDS011;70698;44.402;18.522;2024-02-15T07:26:24;169.52;;;66.75;;
81223;SDS011;70698;44.402;18.522;2024-02-15T07:28:51;154.85;;;62.15;;
81223;SDS011;70698;44.402;18.522;2024-02-15T07:31:18;145.77;;;54.95;;
81223;SDS011;70698;44.402;18.522;2024-02-15T07:33:46;190.27;;;77.70;;
81223;SDS011;70698;44.402;18.522;2024-02-15T07:36:22;189.05;;;73.93;;
81223;SDS011;70698;44.402;18.522;2024-02-15T07:38:51;180.55;;;72.63;;
81223;SDS011;70698;44.402;18.522;2024-02-15T07:41:25;257.60;;;87.35;;
81223;SDS011;70698;44.402;18.522;2024-02-15T07:43:53;326.55;;;111.97;;
81223;SDS011;70698;44.402;18.522;2024-02-15T07:46:20;203.48;;;81.55;;
81223;SDS011;70698;44.402;18.522;2024-02-15T07:48:47;248.18;;;86.10;;
81223;SDS011;70698;44.402;18.522;2024-02-15T07:51:16;193.20;;;69.47;;
81223;SDS011;70698;44.402;18.522;2024-02-15T07:53:45;237.85;;;86.03;;
81223;SDS011;70698;44.402;18.522;2024-02-15T07:56:12;256.05;;;91.10;;
81223;SDS011;70698;44.402;18.522;2024-02-15T07:58:39;300.17;;;106.63;;
81223;SDS011;70698;44.402;18.522;2024-02-15T08:01:17;153.55;;;58.55;;
81223;SDS011;70698;44.402;18.522;2024-02-15T08:03:42;113.47;;;46.53;;
81223;SDS011;70698;44.402;18.522;2024-02-15T08:06:11;107.47;;;42.90;;
81223;SDS011;70698;44.402;18.522;2024-02-15T08:08:41;79.22;;;36.13;;
81223;SDS011;70698;44.402;18.522;2024-02-15T08:11:11;82.75;;;37.45;;
81223;SDS011;70698;44.402;18.522;2024-02-15T08:13:43;62.28;;;30.95;;
81223;SDS011;70698;44.402;18.522;2024-02-15T08:16:21;83.72;;;38.60;;
81223;SDS011;70698;44.402;18.522;2024-02-15T08:18:48;96.68;;;41.67;;
81223;SDS011;70698;44.402;18.522;2024-02-15T08:21:17;106.07;;;44.90;;
81223;SDS011;70698;44.402;18.522;2024-02-15T08:23:43;99.47;;;45.38;;
81223;SDS011;70698;44.402;18.522;2024-02-15T08:26:09;91.78;;;42.15;;
81223;SDS011;70698;44.402;18.522;2024-02-15T08:28:38;96.45;;;42.20;;
81223;SDS011;70698;44.402;18.522;2024-02-15T08:31:03;91.07;;;39.83;;
81223;SDS011;70698;44.402;18.522;2024-02-15T08:33:29;87.85;;;37.38;;
81223;SDS011;70698;44.402;18.522;2024-02-15T08:35:55;246.00;;;87.03;;
81223;SDS011;70698;44.402;18.522;2024-02-15T08:38:21;280.83;;;107.47;;
81223;SDS011;70698;44.402;18.522;2024-02-15T08:40:47;316.08;;;110.20;;
81223;SDS011;70698;44.402;18.522;2024-02-15T08:43:13;230.40;;;85.30;;
81223;SDS011;70698;44.402;18.522;2024-02-15T08:45:40;194.98;;;81.90;;
81223;SDS011;70698;44.402;18.522;2024-02-15T08:48:07;194.45;;;79.20;;
81223;SDS011;70698;44.402;18.522;2024-02-15T08:50:33;149.07;;;65.22;;
81223;SDS011;70698;44.402;18.522;2024-02-15T08:52:58;170.05;;;70.10;;
81223;SDS011;70698;44.402;18.522;2024-02-15T08:55:24;160.48;;;69.50;;
81223;SDS011;70698;44.402;18.522;2024-02-15T08:57:52;161.23;;;69.83;;
81223;SDS011;70698;44.402;18.522;2024-02-15T09:00:19;160.35;;;66.68;;
81223;SDS011;70698;44.402;18.522;2024-02-15T09:02:45;170.75;;;73.10;;
81223;SDS011;70698;44.402;18.522;2024-02-15T09:05:15;209.45;;;92.53;;
81223;SDS011;70698;44.402;18.522;2024-02-15T09:07:41;156.95;;;70.88;;
81223;SDS011;70698;44.402;18.522;2024-02-15T09:10:08;133.70;;;57.72;;
81223;SDS011;70698;44.402;18.522;2024-02-15T09:12:36;122.20;;;56.33;;
81223;SDS011;70698;44.402;18.522;2024-02-15T09:15:08;171.60;;;73.03;;
81223;SDS011;70698;44.402;18.522;2024-02-15T09:17:36;165.13;;;64.97;;
81223;SDS011;70698;44.402;18.522;2024-02-15T09:20:06;151.35;;;61.95;;
81223;SDS011;70698;44.402;18.522;2024-02-15T09:25:14;89.22;;;39.88;;
81223;SDS011;70698;44.402;18.522;2024-02-15T09:27:41;88.22;;;40.38;;
81223;SDS011;70698;44.402;18.522;2024-02-15T09:30:07;78.13;;;35.80;;
81223;SDS011;70698;44.402;18.522;2024-02-15T09:32:35;75.95;;;34.25;;
81223;SDS011;70698;44.402;18.522;2024-02-15T09:35:01;65.85;;;31.00;;
81223;SDS011;70698;44.402;18.522;2024-02-15T09:37:27;58.78;;;27.83;;
81223;SDS011;70698;44.402;18.522;2024-02-15T09:39:54;60.90;;;28.92;;
81223;SDS011;70698;44.402;18.522;2024-02-15T09:42:20;63.72;;;29.77;;
81223;SDS011;70698;44.402;18.522;2024-02-15T09:44:47;61.83;;;29.02;;
81223;SDS011;70698;44.402;18.522;2024-02-15T09:47:13;66.22;;;30.25;;
81223;SDS011;70698;44.402;18.522;2024-02-15T09:49:42;61.80;;;29.48;;
81223;SDS011;70698;44.402;18.522;2024-02-15T09:52:08;67.30;;;31.55;;
81223;SDS011;70698;44.402;18.522;2024-02-15T09:54:41;57.42;;;26.70;;
81223;SDS011;70698;44.402;18.522;2024-02-15T09:57:10;64.88;;;30.10;;
81223;SDS011;70698;44.402;18.522;2024-02-15T09:59:39;66.00;;;31.42;;
81223;SDS011;70698;44.402;18.522;2024-02-15T10:02:08;68.75;;;29.52;;
81223;SDS011;70698;44.402;18.522;2024-02-15T10:04:39;64.10;;;30.15;;
81223;SDS011;70698;44.402;18.522;2024-02-15T10:07:05;55.80;;;26.73;;
81223;SDS011;70698;44.402;18.522;2024-02-15T10:09:34;49.83;;;24.17;;
81223;SDS011;70698;44.402;18.522;2024-02-15T10:12:02;42.72;;;22.20;;
81223;SDS011;70698;44.402;18.522;2024-02-15T10:14:29;42.13;;;20.63;;
81223;SDS011;70698;44.402;18.522;2024-02-15T10:16:55;42.28;;;21.63;;
81223;SDS011;70698;44.402;18.522;2024-02-15T10:19:22;38.63;;;19.95;;
81223;SDS011;70698;44.402;18.522;2024-02-15T10:21:52;34.15;;;17.73;;
81223;SDS011;70698;44.402;18.522;2024-02-15T10:24:31;36.95;;;17.83;;
81223;SDS011;70698;44.402;18.522;2024-02-15T10:27:00;29.92;;;15.73;;
81223;SDS011;70698;44.402;18.522;2024-02-15T10:29:32;27.85;;;14.52;;
81223;SDS011;70698;44.402;18.522;2024-02-15T10:32:01;29.13;;;15.40;;
81223;SDS011;70698;44.402;18.522;2024-02-15T10:34:28;38.55;;;20.50;;
81223;SDS011;70698;44.402;18.522;2024-02-15T10:36:54;35.75;;;19.88;;
81223;SDS011;70698;44.402;18.522;2024-02-15T10:39:23;33.30;;;17.52;;
81223;SDS011;70698;44.402;18.522;2024-02-15T10:41:50;31.60;;;15.88;;
81223;SDS011;70698;44.402;18.522;2024-02-15T10:44:17;33.58;;;18.77;;
81223;SDS011;70698;44.402;18.522;2024-02-15T10:46:48;32.40;;;18.42;;
81223;SDS011;70698;44.402;18.522;2024-02-15T10:49:23;32.40;;;16.83;;
81223;SDS011;70698;44.402;18.522;2024-02-15T10:57:39;26.63;;;14.52;;
81223;SDS011;70698;44.402;18.522;2024-02-15T11:00:09;35.42;;;18.80;;
81223;SDS011;70698;44.402;18.522;2024-02-15T11:02:49;35.65;;;18.45;;
81223;SDS011;70698;44.402;18.522;2024-02-15T11:05:33;56.47;;;26.27;;
81223;SDS011;70698;44.402;18.522;2024-02-15T11:08:04;46.50;;;22.65;;
81223;SDS011;70698;44.402;18.522;2024-02-15T11:10:31;38.95;;;20.83;;
81223;SDS011;70698;44.402;18.522;2024-02-15T11:12:59;33.97;;;17.77;;
81223;SDS011;70698;44.402;18.522;2024-02-15T11:15:44;35.47;;;17.00;;
81223;SDS011;70698;44.402;18.522;2024-02-15T11:18:12;38.17;;;18.45;;
81223;SDS011;70698;44.402;18.522;2024-02-15T11:23:04;30.20;;;13.68;;
81223;SDS011;70698;44.402;18.522;2024-02-15T11:25:33;29.45;;;15.23;;
81223;SDS011;70698;44.402;18.522;2024-02-15T11:30:48;35.35;;;17.02;;
81223;SDS011;70698;44.402;18.522;2024-02-15T11:33:33;28.63;;;14.38;;
81223;SDS011;70698;44.402;18.522;2024-02-15T11:38:27;21.40;;;10.95;;
81223;SDS011;70698;44.402;18.522;2024-02-15T11:46:17;20.88;;;10.95;;
81223;SDS011;70698;44.402;18.522;2024-02-15T11:48:44;38.28;;;15.80;;
81223;SDS011;70698;44.402;18.522;2024-02-15T11:51:24;20.80;;;10.50;;
81223;SDS011;70698;44.402;18.522;2024-02-15T11:53:59;18.27;;;10.07;;
81223;SDS011;70698;44.402;18.522;2024-02-15T11:56:26;17.95;;;9.48;;
81223;SDS011;70698;44.402;18.522;2024-02-15T11:59:01;19.27;;;10.00;;
81223;SDS011;70698;44.402;18.522;2024-02-15T12:01:31;15.10;;;8.77;;
81223;SDS011;70698;44.402;18.522;2024-02-15T12:04:16;15.85;;;8.93;;
81223;SDS011;70698;44.402;18.522;2024-02-15T12:07:00;14.95;;;8.82;;
81223;SDS011;70698;44.402;18.522;2024-02-15T12:09:44;20.25;;;8.77;;
81223;SDS011;70698;44.402;18.522;2024-02-15T12:12:28;18.95;;;9.38;;
81223;SDS011;70698;44.402;18.522;2024-02-15T12:15:13;17.30;;;9.18;;
81223;SDS011;70698;44.402;18.522;2024-02-15T12:18:12;17.33;;;9.27;;
81223;SDS011;70698;44.402;18.522;2024-02-15T12:20:57;15.15;;;8.95;;
81223;SDS011;70698;44.402;18.522;2024-02-15T12:23:24;16.08;;;9.52;;
81223;SDS011;70698;44.402;18.522;2024-02-15T12:25:51;16.58;;;9.88;;
81223;SDS011;70698;44.402;18.522;2024-02-15T12:28:17;20.75;;;11.88;;
81223;SDS011;70698;44.402;18.522;2024-02-15T12:30:43;21.55;;;10.75;;
81223;SDS011;70698;44.402;18.522;2024-02-15T12:33:10;18.00;;;9.57;;
81223;SDS011;70698;44.402;18.522;2024-02-15T12:35:37;19.17;;;11.23;;
81223;SDS011;70698;44.402;18.522;2024-02-15T12:38:03;25.40;;;12.77;;
81223;SDS011;70698;44.402;18.522;2024-02-15T12:40:30;23.20;;;13.43;;
81223;SDS011;70698;44.402;18.522;2024-02-15T12:42:59;24.00;;;13.70;;
81223;SDS011;70698;44.402;18.522;2024-02-15T12:45:31;35.90;;;18.33;;
81223;SDS011;70698;44.402;18.522;2024-02-15T12:47:57;32.58;;;19.17;;
81223;SDS011;70698;44.402;18.522;2024-02-15T12:50:27;31.27;;;18.83;;
81223;SDS011;70698;44.402;18.522;2024-02-15T12:52:55;32.40;;;18.58;;
81223;SDS011;70698;44.402;18.522;2024-02-15T12:55:25;35.10;;;22.02;;
81223;SDS011;70698;44.402;18.522;2024-02-15T12:57:51;32.15;;;20.55;;
81223;SDS011;70698;44.402;18.522;2024-02-15T13:00:21;29.77;;;17.90;;
81223;SDS011;70698;44.402;18.522;2024-02-15T13:02:53;30.70;;;18.70;;
81223;SDS011;70698;44.402;18.522;2024-02-15T13:05:21;31.77;;;18.95;;
81223;SDS011;70698;44.402;18.522;2024-02-15T13:07:48;27.85;;;16.60;;
81223;SDS011;70698;44.402;18.522;2024-02-15T13:10:15;33.22;;;15.85;;
81223;SDS011;70698;44.402;18.522;2024-02-15T13:12:41;22.73;;;13.40;;
81223;SDS011;70698;44.402;18.522;2024-02-15T13:15:10;20.45;;;11.43;;
81223;SDS011;70698;44.402;18.522;2024-02-15T13:17:40;26.88;;;15.10;;
81223;SDS011;70698;44.402;18.522;2024-02-15T13:20:11;21.05;;;12.10;;
81223;SDS011;70698;44.402;18.522;2024-02-15T13:25:09;20.00;;;11.40;;
81223;SDS011;70698;44.402;18.522;2024-02-15T13:27:35;17.50;;;10.85;;
81223;SDS011;70698;44.402;18.522;2024-02-15T13:30:05;20.35;;;12.23;;
81223;SDS011;70698;44.402;18.522;2024-02-15T13:32:38;20.45;;;12.98;;
81223;SDS011;70698;44.402;18.522;2024-02-15T13:35:09;21.05;;;11.38;;
81223;SDS011;70698;44.402;18.522;2024-02-15T13:37:47;18.75;;;11.20;;
81223;SDS011;70698;44.402;18.522;2024-02-15T13:40:13;23.65;;;12.45;;
81223;SDS011;70698;44.402;18.522;2024-02-15T13:42:46;25.45;;;13.48;;
81223;SDS011;70698;44.402;18.522;2024-02-15T13:45:19;15.88;;;10.00;;
81223;SDS011;70698;44.402;18.522;2024-02-15T13:47:48;19.70;;;10.20;;
81223;SDS011;70698;44.402;18.522;2024-02-15T13:50:15;19.60;;;10.50;;
81223;SDS011;70698;44.402;18.522;2024-02-15T13:52:43;16.85;;;8.90;;
81223;SDS011;70698;44.402;18.522;2024-02-15T13:55:18;17.90;;;9.75;;
81223;SDS011;70698;44.402;18.522;2024-02-15T13:57:48;23.23;;;12.30;;
81223;SDS011;70698;44.402;18.522;2024-02-15T14:00:16;17.02;;;10.93;;
81223;SDS011;70698;44.402;18.522;2024-02-15T14:03:03;18.90;;;10.18;;
81223;SDS011;70698;44.402;18.522;2024-02-15T14:05:31;20.45;;;10.35;;
81223;SDS011;70698;44.402;18.522;2024-02-15T14:08:04;16.20;;;8.93;;
81223;SDS011;70698;44.402;18.522;2024-02-15T14:10:33;22.40;;;11.57;;
81223;SDS011;70698;44.402;18.522;2024-02-15T14:13:03;18.95;;;10.10;;
81223;SDS011;70698;44.402;18.522;2024-02-15T14:15:36;12.15;;;6.68;;
81223;SDS011;70698;44.402;18.522;2024-02-15T14:18:04;12.65;;;7.68;;
81223;SDS011;70698;44.402;18.522;2024-02-15T14:20:30;12.85;;;6.93;;
81223;SDS011;70698;44.402;18.522;2024-02-15T14:22:55;10.38;;;6.18;;
81223;SDS011;70698;44.402;18.522;2024-02-15T14:25:22;9.00;;;6.03;;
81223;SDS011;70698;44.402;18.522;2024-02-15T14:27:48;13.02;;;7.22;;
81223;SDS011;70698;44.402;18.522;2024-02-15T14:30:14;12.18;;;7.20;;
81223;SDS011;70698;44.402;18.522;2024-02-15T14:32:58;19.95;;;11.35;;
81223;SDS011;70698;44.402;18.522;2024-02-15T14:35:31;19.30;;;10.40;;
81223;SDS011;70698;44.402;18.522;2024-02-15T14:38:03;16.83;;;8.93;;
81223;SDS011;70698;44.402;18.522;2024-02-15T14:40:32;19.85;;;11.80;;
81223;SDS011;70698;44.402;18.522;2024-02-15T14:42:58;31.10;;;16.80;;
81223;SDS011;70698;44.402;18.522;2024-02-15T14:45:25;34.15;;;16.85;;
81223;SDS011;70698;44.402;18.522;2024-02-15T14:47:51;19.52;;;10.55;;
81223;SDS011;70698;44.402;18.522;2024-02-15T14:50:17;20.70;;;10.70;;